sensor_id;sensor_type;location;lat;lon;timestamp;pressure;altitude;pressure_sealevel;temperature;humidity
40155;BME280;25875;48.202;16.334;2024-02-23T00:01:50;97128.34;;;8.96;68.72
40155;BME280;25875;48.202;16.334;2024-02-23T00:04:17;97107.16;;;8.86;68.85
40155;BME280;25875;48.202;16.334;2024-02-23T00:06:46;97123.06;;;8.96;69.09
40155;BME280;25875;48.202;16.334;2024-02-23T00:09:12;97127.63;;;8.94;69.34
40155;BME280;25875;48.202;16.334;2024-02-23T00:11:39;97118.88;;;8.93;69.37
40155;BME280;25875;48.202;16.334;2024-02-23T00:14:09;97122.34;;;8.94;69.43
40155;BME280;25875;48.202;16.334;2024-02-23T00:16:38;97105.66;;;8.93;69.56
40155;BME280;25875;48.202;16.334;2024-02-23T00:19:05;97098.00;;;8.90;70.08
40155;BME280;25875;48.202;16.334;2024-02-23T00:21:31;97113.00;;;8.90;70.16
40155;BME280;25875;48.202;16.334;2024-02-23T00:23:59;97107.47;;;8.93;70.00
40155;BME280;25875;48.202;16.334;2024-02-23T00:26:26;97108.44;;;8.92;70.04
40155;BME280;25875;48.202;16.334;2024-02-23T00:28:53;97106.75;;;8.91;70.09
40155;BME280;25875;48.202;16.334;2024-02-23T00:31:20;97117.19;;;8.92;70.01
40155;BME280;25875;48.202;16.334;2024-02-23T00:33:46;97112.75;;;8.93;69.86
40155;BME280;25875;48.202;16.334;2024-02-23T00:36:13;97110.13;;;8.93;70.01
40155;BME280;25875;48.202;16.334;2024-02-23T00:38:39;97111.22;;;8.90;70.32
40155;BME280;25875;48.202;16.334;2024-02-23T00:41:07;97101.03;;;8.86;70.36
40155;BME280;25875;48.202;16.334;2024-02-23T00:43:37;97099.09;;;8.88;70.29
40155;BME280;25875;48.202;16.334;2024-02-23T00:46:04;97108.56;;;8.90;70.22
40155;BME280;25875;48.202;16.334;2024-02-23T00:48:31;97098.97;;;8.89;70.23
40155;BME280;25875;48.202;16.334;2024-02-23T00:50:57;97104.13;;;8.91;70.03
40155;BME280;25875;48.202;16.334;2024-02-23T00:53:24;97105.22;;;8.88;70.34
40155;BME280;25875;48.202;16.334;2024-02-23T00:55:50;97106.19;;;8.87;70.24
40155;BME280;25875;48.202;16.334;2024-02-23T00:58:18;97109.91;;;8.85;70.25
40155;BME280;25875;48.202;16.334;2024-02-23T01:00:45;97119.97;;;8.91;70.05
40155;BME280;25875;48.202;16.334;2024-02-23T01:03:12;97130.53;;;8.91;70.25
40155;BME280;25875;48.202;16.334;2024-02-23T01:05:38;97131.38;;;8.91;70.53
40155;BME280;25875;48.202;16.334;2024-02-23T01:08:08;97128.03;;;8.89;70.25
40155;BME280;25875;48.202;16.334;2024-02-23T01:10:34;97126.47;;;8.87;70.61
40155;BME280;25875;48.202;16.334;2024-02-23T01:13:01;97111.53;;;8.76;71.72
40155;BME280;25875;48.202;16.334;2024-02-23T01:15:29;97099.16;;;8.77;71.26
40155;BME280;25875;48.202;16.334;2024-02-23T01:17:56;97091.69;;;8.82;70.95
40155;BME280;25875;48.202;16.334;2024-02-23T01:20:22;97097.09;;;8.80;70.93
40155;BME280;25875;48.202;16.334;2024-02-23T01:22:49;97103.22;;;8.81;70.89
40155;BME280;25875;48.202;16.334;2024-02-23T01:25:16;97110.03;;;8.83;70.86
40155;BME280;25875;48.202;16.334;2024-02-23T01:27:42;97105.72;;;8.82;70.61
40155;BME280;25875;48.202;16.334;2024-02-23T01:30:11;97112.69;;;8.83;70.61
40155;BME280;25875;48.202;16.334;2024-02-23T01:32:39;97113.53;;;8.84;70.70
40155;BME280;25875;48.202;16.334;2024-02-23T01:35:06;97122.66;;;8.80;70.97
40155;BME280;25875;48.202;16.334;2024-02-23T01:37:34;97119.06;;;8.81;70.70
40155;BME280;25875;48.202;16.334;2024-02-23T01:40:00;97117.97;;;8.83;70.57
40155;BME280;25875;48.202;16.334;2024-02-23T01:42:27;97117.25;;;8.81;70.57
40155;BME280;25875;48.202;16.334;2024-02-23T01:44:54;97105.53;;;8.74;70.77
40155;BME280;25875;48.202;16.334;2024-02-23T01:47:22;97107.34;;;8.74;71.12
40155;BME280;25875;48.202;16.334;2024-02-23T01:49:50;97106.25;;;8.76;70.76
40155;BME280;25875;48.202;16.334;2024-02-23T01:52:17;97103.59;;;8.76;70.66
40155;BME280;25875;48.202;16.334;2024-02-23T01:54:44;97102.63;;;8.77;70.72
40155;BME280;25875;48.202;16.334;2024-02-23T01:57:11;97107.09;;;8.77;70.55
40155;BME280;25875;48.202;16.334;2024-02-23T01:59:38;97106.13;;;8.78;70.55
40155;BME280;25875;48.202;16.334;2024-02-23T02:02:06;97096.78;;;8.74;70.76
40155;BME280;25875;48.202;16.334;2024-02-23T02:04:32;97099.41;;;8.74;70.54
40155;BME280;25875;48.202;16.334;2024-02-23T02:07:01;97095.94;;;8.73;70.68
40155;BME280;25875;48.202;16.334;2024-02-23T02:09:27;97095.09;;;8.73;70.71
40155;BME280;25875;48.202;16.334;2024-02-23T02:11:54;97090.66;;;8.73;70.78
40155;BME280;25875;48.202;16.334;2024-02-23T02:14:21;97085.50;;;8.72;71.06
40155;BME280;25875;48.202;16.334;2024-02-23T02:16:48;97102.31;;;8.71;70.88
40155;BME280;25875;48.202;16.334;2024-02-23T02:19:14;97102.44;;;8.69;70.82
40155;BME280;25875;48.202;16.334;2024-02-23T02:21:41;97104.25;;;8.68;71.06
40155;BME280;25875;48.202;16.334;2024-02-23T02:24:09;97105.06;;;8.69;70.77
40155;BME280;25875;48.202;16.334;2024-02-23T02:26:36;97046.44;;;8.33;70.94
40155;BME280;25875;48.202;16.334;2024-02-23T02:29:03;97103.16;;;8.71;70.92
40155;BME280;25875;48.202;16.334;2024-02-23T02:31:30;97114.69;;;8.70;71.13
40155;BME280;25875;48.202;16.334;2024-02-23T02:34:02;97121.75;;;8.70;70.98
40155;BME280;25875;48.202;16.334;2024-02-23T02:36:29;97126.06;;;8.71;71.00
40155;BME280;25875;48.202;16.334;2024-02-23T02:38:55;97133.88;;;8.72;70.84
40155;BME280;25875;48.202;16.334;2024-02-23T02:41:24;97123.47;;;8.59;71.08
40155;BME280;25875;48.202;16.334;2024-02-23T02:43:54;97150.69;;;8.71;71.02
40155;BME280;25875;48.202;16.334;2024-02-23T02:46:21;97153.31;;;8.71;70.94
40155;BME280;25875;48.202;16.334;2024-02-23T02:48:48;97159.31;;;8.73;70.98
40155;BME280;25875;48.202;16.334;2024-02-23T02:51:14;97138.63;;;8.57;71.14
40155;BME280;25875;48.202;16.334;2024-02-23T02:53:41;97164.97;;;8.68;71.45
40155;BME280;25875;48.202;16.334;2024-02-23T02:56:07;97166.66;;;8.70;71.56
40155;BME280;25875;48.202;16.334;2024-02-23T02:58:35;97168.56;;;8.67;71.62
40155;BME280;25875;48.202;16.334;2024-02-23T03:01:02;97169.41;;;8.68;71.57
40155;BME280;25875;48.202;16.334;2024-02-23T03:03:29;97167.75;;;8.67;71.76
40155;BME280;25875;48.202;16.334;2024-02-23T03:05:56;97164.50;;;8.63;72.17
40155;BME280;25875;48.202;16.334;2024-02-23T03:08:22;97168.00;;;8.64;72.17
40155;BME280;25875;48.202;16.334;2024-02-23T03:10:49;97172.31;;;8.65;72.05
40155;BME280;25875;48.202;16.334;2024-02-23T03:13:15;97171.34;;;8.66;71.85
40155;BME280;25875;48.202;16.334;2024-02-23T03:15:43;97168.56;;;8.67;71.73
40155;BME280;25875;48.202;16.334;2024-02-23T03:18:10;97164.25;;;8.66;71.91
40155;BME280;25875;48.202;16.334;2024-02-23T03:20:38;97169.66;;;8.65;72.38
40155;BME280;25875;48.202;16.334;2024-02-23T03:23:04;97156.88;;;8.49;72.83
40155;BME280;25875;48.202;16.334;2024-02-23T03:25:31;97189.38;;;8.61;72.79
40155;BME280;25875;48.202;16.334;2024-02-23T03:27:57;97188.03;;;8.66;72.47
40155;BME280;25875;48.202;16.334;2024-02-23T03:30:24;97189.59;;;8.69;72.32
40155;BME280;25875;48.202;16.334;2024-02-23T03:32:52;97210.13;;;8.65;72.74
40155;BME280;25875;48.202;16.334;2024-02-23T03:35:19;97228.47;;;8.67;72.67
40155;BME280;25875;48.202;16.334;2024-02-23T03:37:45;97245.03;;;8.69;72.45
40155;BME280;25875;48.202;16.334;2024-02-23T03:40:12;97250.69;;;8.64;72.87
40155;BME280;25875;48.202;16.334;2024-02-23T03:42:39;97247.81;;;8.67;72.38
40155;BME280;25875;48.202;16.334;2024-02-23T03:45:05;97266.53;;;8.64;72.68
40155;BME280;25875;48.202;16.334;2024-02-23T03:47:32;97262.94;;;8.65;72.44
40155;BME280;25875;48.202;16.334;2024-02-23T03:50:00;97272.53;;;8.66;72.29
40155;BME280;25875;48.202;16.334;2024-02-23T03:52:27;97273.63;;;8.64;72.59
40155;BME280;25875;48.202;16.334;2024-02-23T03:54:53;97281.66;;;8.62;72.59
40155;BME280;25875;48.202;16.334;2024-02-23T03:57:20;97289.22;;;8.67;73.81
40155;BME280;25875;48.202;16.334;2024-02-23T03:59:53;97239.69;;;8.37;74.25
40155;BME280;25875;48.202;16.334;2024-02-23T04:02:20;97316.19;;;8.82;74.36
40155;BME280;25875;48.202;16.334;2024-02-23T04:04:47;97369.88;;;8.82;75.25
40155;BME280;25875;48.202;16.334;2024-02-23T04:07:15;97378.75;;;8.59;74.99
40155;BME280;25875;48.202;16.334;2024-02-23T04:09:42;97372.03;;;8.55;75.40
40155;BME280;25875;48.202;16.334;2024-02-23T04:12:08;97386.56;;;8.49;75.33
40155;BME280;25875;48.202;16.334;2024-02-23T04:14:35;97370.00;;;8.47;75.12
40155;BME280;25875;48.202;16.334;2024-02-23T04:17:02;97383.06;;;8.38;75.41
40155;BME280;25875;48.202;16.334;2024-02-23T04:19:28;97383.31;;;8.34;75.66
40155;BME280;25875;48.202;16.334;2024-02-23T04:21:55;97377.19;;;8.34;75.29
40155;BME280;25875;48.202;16.334;2024-02-23T04:24:23;97384.50;;;8.30;75.51
40155;BME280;25875;48.202;16.334;2024-02-23T04:26:50;97370.94;;;8.24;75.73
40155;BME280;25875;48.202;16.334;2024-02-23T04:29:16;97371.78;;;8.24;75.98
40155;BME280;25875;48.202;16.334;2024-02-23T04:31:43;97393.84;;;8.23;75.77
40155;BME280;25875;48.202;16.334;2024-02-23T04:34:09;97380.16;;;8.18;76.08
40155;BME280;25875;48.202;16.334;2024-02-23T04:36:36;97383.16;;;8.14;76.18
40155;BME280;25875;48.202;16.334;2024-02-23T04:39:03;97378.59;;;8.16;76.32
40155;BME280;25875;48.202;16.334;2024-02-23T04:41:31;97383.16;;;8.14;76.11
40155;BME280;25875;48.202;16.334;2024-02-23T04:43:58;97382.44;;;8.12;76.18
40155;BME280;25875;48.202;16.334;2024-02-23T04:46:26;97386.16;;;8.09;76.39
40155;BME280;25875;48.202;16.334;2024-02-23T04:48:52;97376.66;;;8.07;76.15
40155;BME280;25875;48.202;16.334;2024-02-23T04:51:19;97387.84;;;8.10;76.19
40155;BME280;25875;48.202;16.334;2024-02-23T04:53:47;97388.06;;;8.07;76.47
40155;BME280;25875;48.202;16.334;2024-02-23T04:56:14;97395.03;;;8.08;76.22
40155;BME280;25875;48.202;16.334;2024-02-23T04:58:42;97407.50;;;8.06;76.30
40155;BME280;25875;48.202;16.334;2024-02-23T05:01:09;97392.00;;;8.01;76.31
40155;BME280;25875;48.202;16.334;2024-02-23T05:03:36;97386.84;;;8.00;76.11
40155;BME280;25875;48.202;16.334;2024-02-23T05:06:03;97390.22;;;8.02;75.79
40155;BME280;25875;48.202;16.334;2024-02-23T05:08:29;97396.56;;;7.99;75.63
40155;BME280;25875;48.202;16.334;2024-02-23T05:10:56;97395.59;;;8.00;75.36
40155;BME280;25875;48.202;16.334;2024-02-23T05:13:23;97395.59;;;8.00;75.28
40155;BME280;25875;48.202;16.334;2024-02-23T05:15:51;97400.03;;;8.00;75.24
40155;BME280;25875;48.202;16.334;2024-02-23T05:18:18;97415.75;;;8.01;75.41
40155;BME280;25875;48.202;16.334;2024-02-23T05:20:44;97429.91;;;8.00;75.49
40155;BME280;25875;48.202;16.334;2024-02-23T05:23:11;97416.81;;;7.99;75.72
40155;BME280;25875;48.202;16.334;2024-02-23T05:25:37;97432.53;;;8.00;76.11
40155;BME280;25875;48.202;16.334;2024-02-23T05:28:04;97433.38;;;8.01;76.26
40155;BME280;25875;48.202;16.334;2024-02-23T05:30:31;97429.16;;;7.98;76.36
40155;BME280;25875;48.202;16.334;2024-02-23T05:32:59;97436.97;;;8.00;76.28
40155;BME280;25875;48.202;16.334;2024-02-23T05:35:28;97437.81;;;8.00;76.38
40155;BME280;25875;48.202;16.334;2024-02-23T05:37:55;97455.56;;;7.98;76.45
40155;BME280;25875;48.202;16.334;2024-02-23T05:40:21;97454.59;;;7.99;76.40
40155;BME280;25875;48.202;16.334;2024-02-23T05:42:48;97460.72;;;8.00;76.27
40155;BME280;25875;48.202;16.334;2024-02-23T05:45:14;97458.06;;;8.00;76.04
40155;BME280;25875;48.202;16.334;2024-02-23T05:47:41;97464.19;;;8.00;76.31
40155;BME280;25875;48.202;16.334;2024-02-23T05:50:09;97462.16;;;8.04;75.74
40155;BME280;25875;48.202;16.334;2024-02-23T05:52:36;97478.00;;;8.04;75.57
40155;BME280;25875;48.202;16.334;2024-02-23T05:55:03;97475.47;;;8.02;75.48
40155;BME280;25875;48.202;16.334;2024-02-23T05:57:30;97478.94;;;8.03;75.14
40155;BME280;25875;48.202;16.334;2024-02-23T05:59:57;97475.25;;;8.06;74.81
40155;BME280;25875;48.202;16.334;2024-02-23T06:02:24;97478.84;;;8.05;74.35
40155;BME280;25875;48.202;16.334;2024-02-23T06:04:50;97493.94;;;8.02;73.98
40155;BME280;25875;48.202;16.334;2024-02-23T06:07:18;97490.34;;;8.03;73.86
40155;BME280;25875;48.202;16.334;2024-02-23T06:09:47;97501.63;;;8.06;73.84
40155;BME280;25875;48.202;16.334;2024-02-23T06:12:13;97505.94;;;8.07;73.68
40155;BME280;25875;48.202;16.334;2024-02-23T06:14:40;97504.25;;;8.06;73.61
40155;BME280;25875;48.202;16.334;2024-02-23T06:17:06;97514.09;;;8.03;73.15
40155;BME280;25875;48.202;16.334;2024-02-23T06:19:33;97514.09;;;8.03;72.99
40155;BME280;25875;48.202;16.334;2024-02-23T06:22:00;97516.72;;;8.03;72.80
40155;BME280;25875;48.202;16.334;2024-02-23T06:24:28;97511.69;;;8.00;72.65
40155;BME280;25875;48.202;16.334;2024-02-23T06:26:55;97514.81;;;8.06;72.46
40155;BME280;25875;48.202;16.334;2024-02-23T06:29:23;97518.28;;;8.06;72.50
40155;BME280;25875;48.202;16.334;2024-02-23T06:31:49;97518.28;;;8.06;72.39
40155;BME280;25875;48.202;16.334;2024-02-23T06:34:16;97528.97;;;8.05;71.95
40155;BME280;25875;48.202;16.334;2024-02-23T06:36:43;97532.34;;;8.07;72.13
40155;BME280;25875;48.202;16.334;2024-02-23T06:39:09;97537.72;;;8.05;71.97
40155;BME280;25875;48.202;16.334;2024-02-23T06:41:37;97536.38;;;7.99;71.63
40155;BME280;25875;48.202;16.334;2024-02-23T06:44:05;97538.91;;;8.01;71.67
40155;BME280;25875;48.202;16.334;2024-02-23T06:46:31;97544.06;;;8.02;71.42
40155;BME280;25875;48.202;16.334;2024-02-23T06:48:58;97539.00;;;7.99;71.46
40155;BME280;25875;48.202;16.334;2024-02-23T06:51:25;97533.72;;;7.99;71.63
40155;BME280;25875;48.202;16.334;2024-02-23T06:53:52;97538.78;;;8.02;71.44
40155;BME280;25875;48.202;16.334;2024-02-23T06:56:18;97548.16;;;8.07;71.57
40155;BME280;25875;48.202;16.334;2024-02-23T06:58:46;97540.47;;;8.03;71.53
40155;BME280;25875;48.202;16.334;2024-02-23T07:01:13;97543.72;;;8.07;71.54
40155;BME280;25875;48.202;16.334;2024-02-23T07:03:39;97555.47;;;8.03;71.55
40155;BME280;25875;48.202;16.334;2024-02-23T07:06:08;97530.09;;;7.89;71.24
40155;BME280;25875;48.202;16.334;2024-02-23T07:08:36;97558.59;;;8.08;71.45
40155;BME280;25875;48.202;16.334;2024-02-23T07:11:03;97565.44;;;8.11;71.22
40155;BME280;25875;48.202;16.334;2024-02-23T07:13:29;97572.28;;;8.13;71.39
40155;BME280;25875;48.202;16.334;2024-02-23T07:15:58;97576.72;;;8.13;71.10
40155;BME280;25875;48.202;16.334;2024-02-23T07:18:26;97577.34;;;8.16;71.04
40155;BME280;25875;48.202;16.334;2024-02-23T07:20:53;97515.88;;;7.79;71.03
40155;BME280;25875;48.202;16.334;2024-02-23T07:23:20;97577.00;;;8.21;70.91
40155;BME280;25875;48.202;16.334;2024-02-23T07:25:48;97567.25;;;8.10;70.85
40155;BME280;25875;48.202;16.334;2024-02-23T07:28:16;97597.41;;;8.19;70.62
40155;BME280;25875;48.202;16.334;2024-02-23T07:30:44;97606.03;;;8.21;70.53
40155;BME280;25875;48.202;16.334;2024-02-23T07:33:13;97615.75;;;8.20;70.16
40155;BME280;25875;48.202;16.334;2024-02-23T07:35:39;97621.03;;;8.20;69.84
40155;BME280;25875;48.202;16.334;2024-02-23T07:38:06;97623.06;;;8.17;69.49
40155;BME280;25875;48.202;16.334;2024-02-23T07:40:32;97627.38;;;8.18;69.18
40155;BME280;25875;48.202;16.334;2024-02-23T07:42:59;97633.28;;;8.21;69.28
40155;BME280;25875;48.202;16.334;2024-02-23T07:45:26;97647.19;;;8.23;69.25
40155;BME280;25875;48.202;16.334;2024-02-23T07:47:52;97655.22;;;8.22;69.02
40155;BME280;25875;48.202;16.334;2024-02-23T07:50:20;97655.22;;;8.22;68.98
40155;BME280;25875;48.202;16.334;2024-02-23T07:52:47;97644.66;;;8.22;68.75
40155;BME280;25875;48.202;16.334;2024-02-23T07:55:14;97649.84;;;8.23;68.68
40155;BME280;25875;48.202;16.334;2024-02-23T07:57:40;97653.22;;;8.25;68.64
40155;BME280;25875;48.202;16.334;2024-02-23T08:00:08;97664.81;;;8.23;68.46
40155;BME280;25875;48.202;16.334;2024-02-23T08:02:35;97672.75;;;8.23;68.69
40155;BME280;25875;48.202;16.334;2024-02-23T08:05:01;97675.28;;;8.24;68.59
40155;BME280;25875;48.202;16.334;2024-02-23T08:07:30;97675.06;;;8.27;68.78
40155;BME280;25875;48.202;16.334;2024-02-23T08:09:57;97666.41;;;8.25;68.29
40155;BME280;25875;48.202;16.334;2024-02-23T08:12:23;97668.81;;;8.28;68.59
40155;BME280;25875;48.202;16.334;2024-02-23T08:14:50;97675.69;;;8.31;68.71
40155;BME280;25875;48.202;16.334;2024-02-23T08:17:18;97687.19;;;8.30;68.85
40155;BME280;25875;48.202;16.334;2024-02-23T08:19:46;97695.09;;;8.30;68.89
40155;BME280;25875;48.202;16.334;2024-02-23T08:22:13;97694.16;;;8.31;68.95
40155;BME280;25875;48.202;16.334;2024-02-23T08:24:41;97684.53;;;8.30;68.68
40155;BME280;25875;48.202;16.334;2024-02-23T08:27:07;97684.88;;;8.25;68.89
40155;BME280;25875;48.202;16.334;2024-02-23T08:29:37;97692.47;;;8.30;69.15
40155;BME280;25875;48.202;16.334;2024-02-23T08:32:05;97693.19;;;8.32;68.80
40155;BME280;25875;48.202;16.334;2024-02-23T08:34:31;97689.50;;;8.34;68.80
40155;BME280;25875;48.202;16.334;2024-02-23T08:36:59;97690.22;;;8.37;68.76
40155;BME280;25875;48.202;16.334;2024-02-23T08:39:26;97705.84;;;8.40;69.08
40155;BME280;25875;48.202;16.334;2024-02-23T08:41:55;97716.19;;;8.43;68.82
40155;BME280;25875;48.202;16.334;2024-02-23T08:44:22;97719.78;;;8.42;68.78
40155;BME280;25875;48.202;16.334;2024-02-23T08:46:48;97715.94;;;8.46;68.78
40155;BME280;25875;48.202;16.334;2024-02-23T08:49:15;97665.16;;;8.18;68.46
40155;BME280;25875;48.202;16.334;2024-02-23T08:51:41;97700.97;;;8.46;68.44
40155;BME280;25875;48.202;16.334;2024-02-23T08:54:08;97719.31;;;8.48;68.63
40155;BME280;25875;48.202;16.334;2024-02-23T08:56:36;97722.91;;;8.47;68.40
40155;BME280;25875;48.202;16.334;2024-02-23T08:59:04;97715.84;;;8.47;68.58
40155;BME280;25875;48.202;16.334;2024-02-23T09:01:31;97716.56;;;8.49;68.61
40155;BME280;25875;48.202;16.334;2024-02-23T09:03:58;97729.66;;;8.51;68.69
40155;BME280;25875;48.202;16.334;2024-02-23T09:06:25;97725.34;;;8.50;68.67
40155;BME280;25875;48.202;16.334;2024-02-23T09:08:51;97730.41;;;8.53;68.65
40155;BME280;25875;48.202;16.334;2024-02-23T09:11:18;97725.44;;;8.48;68.75
40155;BME280;25875;48.202;16.334;2024-02-23T09:13:45;97732.19;;;8.52;68.84
40155;BME280;25875;48.202;16.334;2024-02-23T09:16:13;97727.44;;;8.57;68.58
40155;BME280;25875;48.202;16.334;2024-02-23T09:18:40;97744.22;;;8.56;68.75
40155;BME280;25875;48.202;16.334;2024-02-23T09:21:06;97736.91;;;8.60;68.74
40155;BME280;25875;48.202;16.334;2024-02-23T09:23:33;97742.53;;;8.55;68.79
40155;BME280;25875;48.202;16.334;2024-02-23T09:26:00;97744.00;;;8.59;68.81
40155;BME280;25875;48.202;16.334;2024-02-23T09:28:27;97748.78;;;8.54;68.63
40155;BME280;25875;48.202;16.334;2024-02-23T09:30:53;97750.34;;;8.57;69.08
40155;BME280;25875;48.202;16.334;2024-02-23T09:33:21;97751.19;;;8.57;69.19
40155;BME280;25875;48.202;16.334;2024-02-23T09:35:48;97745.69;;;8.60;69.06
40155;BME280;25875;48.202;16.334;2024-02-23T09:38:14;97756.97;;;8.62;68.80
40155;BME280;25875;48.202;16.334;2024-02-23T09:40:41;97757.81;;;8.63;69.12
40155;BME280;25875;48.202;16.334;2024-02-23T09:43:08;97758.56;;;8.65;68.98
40155;BME280;25875;48.202;16.334;2024-02-23T09:45:37;97757.44;;;8.56;69.48
40155;BME280;25875;48.202;16.334;2024-02-23T09:48:05;97762.59;;;8.58;68.72
40155;BME280;25875;48.202;16.334;2024-02-23T09:50:35;97758.88;;;8.60;69.14
40155;BME280;25875;48.202;16.334;2024-02-23T09:53:04;97764.78;;;8.64;68.64
40155;BME280;25875;48.202;16.334;2024-02-23T09:55:33;97761.03;;;8.55;68.97
40155;BME280;25875;48.202;16.334;2024-02-23T09:58:00;97761.53;;;8.60;68.99
40155;BME280;25875;48.202;16.334;2024-02-23T10:00:29;97760.69;;;8.60;69.01
40155;BME280;25875;48.202;16.334;2024-02-23T10:02:57;97766.19;;;8.57;68.99
40155;BME280;25875;48.202;16.334;2024-02-23T10:05:29;97758.78;;;8.62;69.36
40155;BME280;25875;48.202;16.334;2024-02-23T10:07:58;97678.78;;;8.12;69.44
40155;BME280;25875;48.202;16.334;2024-02-23T10:10:29;97744.91;;;8.71;68.88
40155;BME280;25875;48.202;16.334;2024-02-23T10:12:58;97738.28;;;8.65;69.23
40155;BME280;25875;48.202;16.334;2024-02-23T10:15:24;97741.47;;;8.58;69.70
40155;BME280;25875;48.202;16.334;2024-02-23T10:17:51;97734.31;;;8.47;69.94
40155;BME280;25875;48.202;16.334;2024-02-23T10:20:19;97733.03;;;8.53;69.57
40155;BME280;25875;48.202;16.334;2024-02-23T10:22:46;97729.00;;;8.60;69.34
40155;BME280;25875;48.202;16.334;2024-02-23T10:25:14;97730.47;;;8.64;69.44
40155;BME280;25875;48.202;16.334;2024-02-23T10:27:41;97713.22;;;8.47;68.94
40155;BME280;25875;48.202;16.334;2024-02-23T10:30:10;97727.88;;;8.51;69.54
40155;BME280;25875;48.202;16.334;2024-02-23T10:32:38;97721.41;;;8.55;68.93
40155;BME280;25875;48.202;16.334;2024-02-23T10:35:10;97713.66;;;8.65;69.02
40155;BME280;25875;48.202;16.334;2024-02-23T10:37:37;97725.56;;;8.71;68.91
40155;BME280;25875;48.202;16.334;2024-02-23T10:40:06;97719.56;;;8.68;68.68
40155;BME280;25875;48.202;16.334;2024-02-23T10:42:38;97717.44;;;8.74;68.74
40155;BME280;25875;48.202;16.334;2024-02-23T10:45:06;97705.19;;;8.73;68.85
40155;BME280;25875;48.202;16.334;2024-02-23T10:47:34;97700.63;;;8.75;68.81
40155;BME280;25875;48.202;16.334;2024-02-23T10:50:02;97599.59;;;8.25;68.72
40155;BME280;25875;48.202;16.334;2024-02-23T10:52:30;97687.56;;;8.84;69.13
40155;BME280;25875;48.202;16.334;2024-02-23T10:55:00;97692.50;;;8.89;69.60
40155;BME280;25875;48.202;16.334;2024-02-23T10:57:28;97692.16;;;8.93;69.80
40155;BME280;25875;48.202;16.334;2024-02-23T10:59:56;97587.38;;;8.35;69.65
40155;BME280;25875;48.202;16.334;2024-02-23T11:02:24;97696.78;;;9.03;69.58
40155;BME280;25875;48.202;16.334;2024-02-23T11:04:55;97654.31;;;8.82;69.53
40155;BME280;25875;48.202;16.334;2024-02-23T11:07:22;97690.41;;;9.05;69.10
40155;BME280;25875;48.202;16.334;2024-02-23T11:09:51;97651.56;;;8.83;69.13
40155;BME280;25875;48.202;16.334;2024-02-23T11:12:25;97681.41;;;9.08;69.19
40155;BME280;25875;48.202;16.334;2024-02-23T11:14:57;97676.13;;;9.08;68.79
40155;BME280;25875;48.202;16.334;2024-02-23T11:17:26;97672.53;;;9.09;68.81
40155;BME280;25875;48.202;16.334;2024-02-23T11:19:54;97665.19;;;9.12;69.06
40155;BME280;25875;48.202;16.334;2024-02-23T11:22:24;97673.84;;;9.14;68.89
40155;BME280;25875;48.202;16.334;2024-02-23T11:24:53;97677.09;;;9.18;68.84
40155;BME280;25875;48.202;16.334;2024-02-23T11:27:20;97667.47;;;9.06;68.81
40155;BME280;25875;48.202;16.334;2024-02-23T11:29:46;97681.34;;;9.20;68.94
40155;BME280;25875;48.202;16.334;2024-02-23T11:32:16;97683.03;;;9.21;68.80
40155;BME280;25875;48.202;16.334;2024-02-23T11:34:54;97679.63;;;9.19;68.67
40155;BME280;25875;48.202;16.334;2024-02-23T11:37:22;97686.72;;;9.19;68.62
40155;BME280;25875;48.202;16.334;2024-02-23T11:39:49;97674.28;;;9.21;68.67
40155;BME280;25875;48.202;16.334;2024-02-23T11:42:17;97665.38;;;9.22;68.46
40155;BME280;25875;48.202;16.334;2024-02-23T11:44:44;97650.47;;;9.21;68.42
40155;BME280;25875;48.202;16.334;2024-02-23T11:47:11;97636.13;;;9.12;68.35
40155;BME280;25875;48.202;16.334;2024-02-23T11:49:39;97652.16;;;9.22;68.07
40155;BME280;25875;48.202;16.334;2024-02-23T11:52:06;97657.66;;;9.19;68.17
40155;BME280;25875;48.202;16.334;2024-02-23T11:54:33;97657.88;;;9.16;68.33
40155;BME280;25875;48.202;16.334;2024-02-23T11:56:59;97646.59;;;9.14;68.33
40155;BME280;25875;48.202;16.334;2024-02-23T11:59:26;97660.72;;;9.02;68.23
40155;BME280;25875;48.202;16.334;2024-02-23T12:01:53;97654.75;;;9.11;68.51
40155;BME280;25875;48.202;16.334;2024-02-23T12:04:20;97654.09;;;9.20;68.46
40155;BME280;25875;48.202;16.334;2024-02-23T12:06:48;97649.63;;;9.20;68.30
40155;BME280;25875;48.202;16.334;2024-02-23T12:09:15;97642.88;;;9.16;68.30
40155;BME280;25875;48.202;16.334;2024-02-23T12:11:42;97645.84;;;9.12;68.40
40155;BME280;25875;48.202;16.334;2024-02-23T12:14:08;97646.31;;;9.06;68.28
40155;BME280;25875;48.202;16.334;2024-02-23T12:16:35;97644.28;;;9.09;68.02
40155;BME280;25875;48.202;16.334;2024-02-23T12:19:02;97647.06;;;9.08;68.08
40155;BME280;25875;48.202;16.334;2024-02-23T12:21:29;97636.84;;;9.14;68.08
40155;BME280;25875;48.202;16.334;2024-02-23T12:23:57;97626.03;;;9.06;68.15
40155;BME280;25875;48.202;16.334;2024-02-23T12:26:23;97621.59;;;9.07;68.54
40155;BME280;25875;48.202;16.334;2024-02-23T12:28:50;97625.78;;;8.98;69.36
40155;BME280;25875;48.202;16.334;2024-02-23T12:31:23;97627.06;;;8.92;69.62
40155;BME280;25875;48.202;16.334;2024-02-23T12:33:50;97617.97;;;8.96;69.49
40155;BME280;25875;48.202;16.334;2024-02-23T12:36:17;97623.84;;;9.00;69.52
40155;BME280;25875;48.202;16.334;2024-02-23T12:38:44;97612.09;;;9.04;69.42
40155;BME280;25875;48.202;16.334;2024-02-23T12:41:12;97602.72;;;9.00;69.68
40155;BME280;25875;48.202;16.334;2024-02-23T12:43:38;97601.25;;;8.96;70.38
40155;BME280;25875;48.202;16.334;2024-02-23T12:46:05;97556.53;;;8.71;70.71
40155;BME280;25875;48.202;16.334;2024-02-23T12:48:33;97590.69;;;8.96;71.58
40155;BME280;25875;48.202;16.334;2024-02-23T12:51:00;97509.81;;;8.49;71.35
40155;BME280;25875;48.202;16.334;2024-02-23T12:53:31;97587.34;;;9.05;71.30
40155;BME280;25875;48.202;16.334;2024-02-23T12:55:58;97597.44;;;9.00;72.31
40155;BME280;25875;48.202;16.334;2024-02-23T12:58:27;97593.47;;;8.94;72.32
40155;BME280;25875;48.202;16.334;2024-02-23T13:00:53;97582.53;;;8.99;71.84